Time,TemperatureF,DewpointF,PressureIn,WindDirection,WindDirectionDegrees,WindSpeedMPH,WindSpeedGustMPH,Humidity,HourlyPrecipIn,Conditions,Clouds,dailyrainin,SoftwareType,DateUTC
2013-02-23 00:02:00,26.8,8.8,30.11,North,0,2.0,6.0,46,0.00,,,0.00,meteohub,2013-02-22 23:02:00,
2013-02-23 00:07:00,26.8,8.8,30.11,NW,315,1.0,3.0,46,0.00,,,0.00,meteohub,2013-02-22 23:07:00,
2013-02-23 00:12:00,26.6,9.1,30.11,NE,45,3.0,6.0,47,0.00,,,0.00,meteohub,2013-02-22 23:12:00,
2013-02-23 00:20:00,26.4,9.0,30.11,ENE,68,2.0,4.0,47,0.00,,,0.00,meteohub,2013-02-22 23:20:00,
2013-02-23 00:25:00,26.2,8.8,30.11,NE,45,4.0,9.0,47,0.00,,,0.00,meteohub,2013-02-22 23:25:00,
2013-02-23 00:30:00,26.1,9.1,30.11,SE,135,6.0,9.0,48,0.00,,,0.00,meteohub,2013-02-22 23:30:00,
2013-02-23 00:35:00,26.2,9.3,-100.00,West,270,4.0,9.0,48,0.00,,,0.00,meteohub,2013-02-22 23:35:00,
2013-02-23 00:41:00,26.2,9.3,30.11,NE,45,4.0,8.0,48,0.00,,,0.00,meteohub,2013-02-22 23:41:00,
2013-02-23 00:46:00,26.1,9.1,30.11,SW,225,2.0,8.0,48,0.00,,,0.00,meteohub,2013-02-22 23:46:00,
2013-02-23 00:51:00,26.2,9.3,30.11,NW,315,3.0,7.0,48,0.00,,,0.00,meteohub,2013-02-22 23:51:00,
2013-02-23 00:56:00,26.4,9.5,30.11,WNW,292,6.0,7.0,48,0.00,,,0.00,meteohub,2013-02-22 23:56:00,
2013-02-23 01:01:00,26.4,9.5,30.11,NW,315,3.0,7.0,48,0.00,,,0.00,meteohub,2013-02-23 00:01:00,
2013-02-23 01:07:00,26.4,9.9,-100.00,SSE,158,4.0,7.0,49,0.00,,,0.00,meteohub,2013-02-23 00:07:00,
2013-02-23 01:12:00,26.4,9.9,30.11,ENE,68,7.0,7.0,49,0.00,,,0.00,meteohub,2013-02-23 00:12:00,
2013-02-23 01:17:00,26.4,9.9,-100.00,NE,45,6.0,7.0,49,0.00,,,0.00,meteohub,2013-02-23 00:17:00,
2013-02-23 01:22:00,26.6,10.6,30.11,North,0,7.0,7.0,50,0.00,,,0.00,meteohub,2013-02-23 00:22:00,
2013-02-23 01:27:00,26.6,10.6,30.11,NNE,22,13.0,13.0,50,0.00,,,0.00,meteohub,2013-02-23 00:27:00,
2013-02-23 01:35:00,26.6,10.9,30.11,WSW,248,3.0,13.0,51,0.00,,,0.00,meteohub,2013-02-23 00:35:00,
2013-02-23 01:40:00,26.6,10.9,-100.00,WSW,248,2.0,13.0,51,0.00,,,0.00,meteohub,2013-02-23 00:40:00,
2013-02-23 01:53:00,26.4,11.1,30.11,North,0,6.0,8.0,52,0.00,,,0.00,meteohub,2013-02-23 00:53:00,
2013-02-23 01:58:00,26.6,11.3,30.11,ENE,68,6.0,6.0,52,0.00,,,0.00,meteohub,2013-02-23 00:58:00,
2013-02-23 02:03:00,26.4,11.1,30.11,SE,135,7.0,7.0,52,0.00,,,0.00,meteohub,2013-02-23 01:03:00,
2013-02-23 02:08:00,26.6,11.3,-100.00,SE,135,5.0,6.0,52,0.00,,,0.00,meteohub,2013-02-23 01:08:00,
2013-02-23 02:13:00,26.6,11.3,-100.00,WNW,292,4.0,7.0,52,0.00,,,0.00,meteohub,2013-02-23 01:13:00,
2013-02-23 02:18:00,26.6,11.3,30.11,NW,315,9.0,9.0,52,0.00,,,0.00,meteohub,2013-02-23 01:18:00,
2013-02-23 02:23:00,26.6,11.3,30.11,East,90,5.0,9.0,52,0.00,,,0.00,meteohub,2013-02-23 01:23:00,
2013-02-23 02:29:00,26.6,11.3,-100.00,NE,45,7.0,9.0,52,0.00,,,0.00,meteohub,2013-02-23 01:29:00,
2013-02-23 02:34:00,26.6,11.3,30.08,NE,45,3.0,10.0,52,0.00,,,0.00,meteohub,2013-02-23 01:34:00,
2013-02-23 02:39:00,26.6,11.3,30.08,NE,45,5.0,10.0,52,0.00,,,0.00,meteohub,2013-02-23 01:39:00,
2013-02-23 02:44:00,26.6,11.3,30.08,East,90,4.0,10.0,52,0.00,,,0.00,meteohub,2013-02-23 01:44:00,
2013-02-23 02:49:00,26.4,11.1,30.08,North,0,3.0,8.0,52,0.00,,,0.00,meteohub,2013-02-23 01:49:00,
2013-02-23 02:54:00,26.4,11.1,-100.00,West,270,6.0,9.0,52,0.00,,,0.00,meteohub,2013-02-23 01:54:00,
2013-02-23 02:59:00,26.4,11.7,30.08,NE,45,9.0,9.0,53,0.00,,,0.00,meteohub,2013-02-23 01:59:00,
2013-02-23 03:04:00,26.2,11.5,30.08,NW,315,6.0,9.0,53,0.00,,,0.00,meteohub,2013-02-23 02:04:00,
2013-02-23 03:10:00,26.2,11.5,-100.00,SSW,202,4.0,9.0,53,0.00,,,0.00,meteohub,2013-02-23 02:10:00,
2013-02-23 03:15:00,26.2,11.5,30.08,NE,45,6.0,9.0,53,0.00,,,0.00,meteohub,2013-02-23 02:15:00,
2013-02-23 03:20:00,26.1,11.3,30.08,NE,45,5.0,8.0,53,0.00,,,0.00,meteohub,2013-02-23 02:20:00,
2013-02-23 03:25:00,26.1,11.3,-100.00,North,0,1.0,8.0,53,0.00,,,0.00,meteohub,2013-02-23 02:25:00,
2013-02-23 03:37:00,25.9,11.1,30.08,SW,225,5.0,9.0,53,0.00,,,0.00,meteohub,2013-02-23 02:37:00,
2013-02-23 03:42:00,25.9,11.1,30.08,NNW,338,3.0,6.0,53,0.00,,,0.00,meteohub,2013-02-23 02:42:00,
2013-02-23 03:47:00,25.9,11.1,30.08,NE,45,8.0,8.0,53,0.00,,,0.00,meteohub,2013-02-23 02:47:00,
2013-02-23 03:52:00,25.9,11.1,30.08,East,90,4.0,8.0,53,0.00,,,0.00,meteohub,2013-02-23 02:52:00,
2013-02-23 03:57:00,25.9,11.1,30.08,NE,45,3.0,8.0,53,0.00,,,0.00,meteohub,2013-02-23 02:57:00,
2013-02-23 04:02:00,25.9,11.1,30.08,NE,45,6.0,8.0,53,0.00,,,0.00,meteohub,2013-02-23 03:02:00,
2013-02-23 04:09:00,25.9,11.1,30.08,ENE,68,5.0,8.0,53,0.00,,,0.00,meteohub,2013-02-23 03:09:00,
2013-02-23 04:14:00,25.9,11.1,30.08,SSE,158,3.0,8.0,53,0.00,,,0.00,meteohub,2013-02-23 03:14:00,
2013-02-23 04:19:00,25.9,11.1,30.08,NW,315,4.0,8.0,53,0.00,,,0.00,meteohub,2013-02-23 03:19:00,
2013-02-23 04:24:00,26.1,11.3,30.08,NE,45,5.0,8.0,53,0.00,,,0.00,meteohub,2013-02-23 03:24:00,
2013-02-23 04:29:00,25.9,11.1,30.08,NW,315,4.0,10.0,53,0.00,,,0.00,meteohub,2013-02-23 03:29:00,
2013-02-23 04:36:00,25.9,11.1,30.08,ENE,68,3.0,10.0,53,0.00,,,0.00,meteohub,2013-02-23 03:36:00,
2013-02-23 04:46:00,26.1,11.3,30.08,ENE,68,9.0,9.0,53,0.00,,,0.00,meteohub,2013-02-23 03:46:00,
2013-02-23 04:51:00,26.1,11.3,30.08,SW,225,3.0,9.0,53,0.00,,,0.00,meteohub,2013-02-23 03:51:00,
2013-02-23 04:56:00,25.9,11.1,30.08,NW,315,5.0,9.0,53,0.00,,,0.00,meteohub,2013-02-23 03:56:00,
2013-02-23 05:01:00,25.9,11.1,-100.00,NNE,22,5.0,9.0,53,0.00,,,0.00,meteohub,2013-02-23 04:01:00,
2013-02-23 05:07:00,26.1,11.3,30.08,NW,315,1.0,8.0,53,0.00,,,0.00,meteohub,2013-02-23 04:07:00,
2013-02-23 05:12:00,25.9,11.1,30.08,NE,45,5.0,8.0,53,0.00,,,0.00,meteohub,2013-02-23 04:12:00,
2013-02-23 05:17:00,25.9,11.1,30.08,North,0,4.0,6.0,53,0.00,,,0.00,meteohub,2013-02-23 04:17:00,
2013-02-23 05:22:00,25.9,11.1,-100.00,NNE,22,3.0,6.0,53,0.00,,,0.00,meteohub,2013-02-23 04:22:00,
2013-02-23 05:27:00,25.7,10.9,30.08,NNE,22,4.0,8.0,53,0.00,,,0.00,meteohub,2013-02-23 04:27:00,
2013-02-23 05:32:00,25.7,11.3,30.08,NNE,22,6.0,8.0,54,0.00,,,0.00,meteohub,2013-02-23 04:32:00,
2013-02-23 05:37:00,25.7,11.3,30.08,ENE,68,4.0,8.0,54,0.00,,,0.00,meteohub,2013-02-23 04:37:00,
2013-02-23 05:42:00,25.7,11.3,30.08,NW,315,5.0,6.0,54,0.00,,,0.00,meteohub,2013-02-23 04:42:00,
2013-02-23 05:47:00,25.7,11.3,30.08,East,90,6.0,7.0,54,0.00,,,0.00,meteohub,2013-02-23 04:47:00,
2013-02-23 05:52:00,25.7,11.8,30.08,NW,315,6.0,7.0,55,0.00,,,0.00,meteohub,2013-02-23 04:52:00,
2013-02-23 05:57:00,25.7,11.3,30.08,NE,45,6.0,7.0,54,0.00,,,0.00,meteohub,2013-02-23 04:57:00,
2013-02-23 06:00:00,25.7,11.3,30.08,West,270,9.0,9.0,54,0.00,,,0.00,meteohub,2013-02-23 05:00:00,
2013-02-23 06:01:00,25.7,11.8,30.08,South,180,4.0,6.0,55,0.00,,,0.00,meteohub,2013-02-23 05:01:00,
2013-02-23 06:02:00,25.7,11.8,30.08,South,180,4.0,6.0,55,0.00,,,0.00,meteohub,2013-02-23 05:02:00,
2013-02-23 06:08:00,25.5,11.7,30.08,North,0,3.0,9.0,55,0.00,,,0.00,meteohub,2013-02-23 05:08:00,
2013-02-23 06:13:00,25.3,11.1,30.08,South,180,4.0,9.0,54,0.00,,,0.00,meteohub,2013-02-23 05:13:00,
2013-02-23 06:18:00,25.5,11.3,30.08,SSE,158,4.0,9.0,54,0.00,,,0.00,meteohub,2013-02-23 05:18:00,
2013-02-23 06:23:00,25.5,11.7,30.08,North,0,2.0,6.0,55,0.00,,,0.00,meteohub,2013-02-23 05:23:00,
2013-02-23 06:28:00,25.3,11.5,30.08,North,0,3.0,6.0,55,0.00,,,0.00,meteohub,2013-02-23 05:28:00,
2013-02-23 06:33:00,25.7,11.8,30.08,NW,315,6.0,6.0,55,0.00,,,0.00,meteohub,2013-02-23 05:33:00,
2013-02-23 06:38:00,25.7,11.8,30.08,North,0,4.0,6.0,55,0.00,,,0.00,meteohub,2013-02-23 05:38:00,
2013-02-23 06:44:00,25.5,11.7,30.08,SW,225,3.0,6.0,55,0.00,,,0.00,meteohub,2013-02-23 05:44:00,
2013-02-23 06:49:00,25.7,11.8,30.08,NNW,338,3.0,6.0,55,0.00,,,0.00,meteohub,2013-02-23 05:49:00,
2013-02-23 06:55:00,25.9,12.0,30.08,NW,315,3.0,6.0,55,0.00,,,0.00,meteohub,2013-02-23 05:55:00,
2013-02-23 07:00:00,26.1,12.6,-100.00,East,90,3.0,6.0,56,0.00,,,0.00,meteohub,2013-02-23 06:00:00,
2013-02-23 07:11:00,26.1,12.6,30.08,NW,315,8.0,8.0,56,0.00,,,0.00,meteohub,2013-02-23 06:11:00,
2013-02-23 07:16:00,26.1,12.6,30.08,West,270,4.0,8.0,56,0.00,,,0.00,meteohub,2013-02-23 06:16:00,
2013-02-23 07:22:00,26.1,12.2,30.08,East,90,2.0,8.0,55,0.00,,,0.00,meteohub,2013-02-23 06:22:00,
2013-02-23 07:27:00,26.1,12.2,30.08,ESE,112,5.0,8.0,55,0.00,,,0.00,meteohub,2013-02-23 06:27:00,
2013-02-23 07:35:00,26.1,12.2,30.08,NNW,338,4.0,6.0,55,0.00,,,0.00,meteohub,2013-02-23 06:35:00,
2013-02-23 07:40:00,26.1,12.2,30.08,North,0,5.0,6.0,55,0.00,,,0.00,meteohub,2013-02-23 06:40:00,
2013-02-23 07:45:00,26.1,12.2,30.08,North,0,3.0,8.0,55,0.00,,,0.00,meteohub,2013-02-23 06:45:00,
2013-02-23 07:50:00,26.1,12.6,30.08,NW,315,2.0,8.0,56,0.00,,,0.00,meteohub,2013-02-23 06:50:00,
2013-02-23 07:56:00,26.6,13.5,30.08,East,90,3.0,8.0,57,0.00,,,0.00,meteohub,2013-02-23 06:56:00,
2013-02-23 08:01:00,26.4,12.9,30.08,NE,45,4.0,8.0,56,0.00,,,0.00,meteohub,2013-02-23 07:01:00,
2013-02-23 08:06:00,26.8,12.7,30.11,NE,45,6.0,6.0,55,0.00,,,0.00,meteohub,2013-02-23 07:06:00,
2013-02-23 08:11:00,26.8,12.7,30.11,ENE,68,3.0,6.0,55,0.00,,,0.00,meteohub,2013-02-23 07:11:00,
2013-02-23 08:16:00,26.6,13.1,30.11,NE,45,5.0,6.0,56,0.00,,,0.00,meteohub,2013-02-23 07:16:00,
2013-02-23 08:21:00,27.0,13.5,30.11,North,-999,-999.0,6.0,56,0.00,,,0.00,meteohub,2013-02-23 07:21:00,
2013-02-23 08:26:00,27.0,12.9,-100.00,NNE,22,7.0,7.0,55,0.00,,,0.00,meteohub,2013-02-23 07:26:00,
2013-02-23 08:36:00,27.3,13.3,30.11,NE,45,5.0,8.0,55,0.00,,,0.00,meteohub,2013-02-23 07:36:00,
2013-02-23 08:41:00,27.5,13.5,30.11,North,0,8.0,8.0,55,0.00,,,0.00,meteohub,2013-02-23 07:41:00,
2013-02-23 08:46:00,27.7,14.0,30.11,NW,315,6.0,8.0,56,0.00,,,0.00,meteohub,2013-02-23 07:46:00,
2013-02-23 08:52:00,27.7,14.0,30.11,NE,45,7.0,9.0,56,0.00,,,0.00,meteohub,2013-02-23 07:52:00,
2013-02-23 08:57:00,28.0,14.4,30.11,North,0,4.0,9.0,56,0.00,,,0.00,meteohub,2013-02-23 07:57:00,
2013-02-23 09:02:00,28.2,14.2,30.11,ENE,68,4.0,9.0,55,0.00,,,0.00,meteohub,2013-02-23 08:02:00,
2013-02-23 09:07:00,28.6,14.5,-100.00,ENE,68,4.0,6.0,55,0.00,,,0.00,meteohub,2013-02-23 08:07:00,
2013-02-23 09:13:00,28.8,14.7,30.11,NNW,338,9.0,9.0,55,0.00,,,0.00,meteohub,2013-02-23 08:13:00,
2013-02-23 09:18:00,28.9,14.9,30.11,NNW,338,6.0,9.0,55,0.00,,,0.00,meteohub,2013-02-23 08:18:00,
2013-02-23 09:23:00,28.9,14.4,30.11,ENE,68,4.0,9.0,54,0.00,,,0.00,meteohub,2013-02-23 08:23:00,
2013-02-23 09:29:00,28.9,14.4,30.11,North,0,6.0,9.0,54,0.00,,,0.00,meteohub,2013-02-23 08:29:00,
2013-02-23 09:34:00,29.1,14.5,30.11,NNE,22,4.0,7.0,54,0.00,,,0.00,meteohub,2013-02-23 08:34:00,
2013-02-23 09:39:00,29.5,15.3,30.11,NNW,338,2.0,8.0,55,0.00,,,0.00,meteohub,2013-02-23 08:39:00,
2013-02-23 09:44:00,29.3,14.7,30.11,WSW,248,4.0,8.0,54,0.00,,,0.00,meteohub,2013-02-23 08:44:00,
2013-02-23 09:49:00,30.0,15.8,30.11,NNW,338,4.0,8.0,55,0.00,,,0.00,meteohub,2013-02-23 08:49:00,
2013-02-23 09:57:00,30.2,15.6,-100.00,ENE,68,1.0,6.0,54,0.00,,,0.00,meteohub,2013-02-23 08:57:00,
2013-02-23 10:02:00,30.2,15.6,30.11,North,0,5.0,6.0,54,0.00,,,0.00,meteohub,2013-02-23 09:02:00,
2013-02-23 10:07:00,30.0,14.9,30.11,NE,45,8.0,8.0,53,0.00,,,0.00,meteohub,2013-02-23 09:07:00,
2013-02-23 10:12:00,30.2,15.1,30.11,NE,45,8.0,8.0,53,0.00,,,0.00,meteohub,2013-02-23 09:12:00,
2013-02-23 10:19:00,30.7,15.6,30.11,NW,315,2.0,8.0,53,0.00,,,0.00,meteohub,2013-02-23 09:19:00,
2013-02-23 10:24:00,30.9,15.4,30.11,NW,315,3.0,8.0,52,0.00,,,0.00,meteohub,2013-02-23 09:24:00,
2013-02-23 10:29:00,31.5,15.4,30.11,NW,315,4.0,8.0,51,0.00,,,0.00,meteohub,2013-02-23 09:29:00,
2013-02-23 10:34:00,31.5,15.1,30.11,ENE,68,9.0,9.0,50,0.00,,,0.00,meteohub,2013-02-23 09:34:00,
2013-02-23 10:39:00,31.8,14.0,30.11,East,90,9.0,13.0,47,0.00,,,0.00,meteohub,2013-02-23 09:39:00,
2013-02-23 10:44:00,31.5,12.6,-100.00,West,270,8.0,13.0,45,0.00,,,0.00,meteohub,2013-02-23 09:44:00,
2013-02-23 10:49:00,31.3,11.8,30.11,East,90,8.0,13.0,44,0.00,,,0.00,meteohub,2013-02-23 09:49:00,
2013-02-23 10:54:00,31.3,11.8,30.11,NW,315,13.0,16.0,44,0.00,,,0.00,meteohub,2013-02-23 09:54:00,
2013-02-23 10:59:00,31.3,11.5,30.11,ENE,68,12.0,16.0,43,0.00,,,0.00,meteohub,2013-02-23 09:59:00,
2013-02-23 11:05:00,31.3,11.5,30.11,NNW,338,15.0,15.0,43,0.00,,,0.00,meteohub,2013-02-23 10:05:00,
2013-02-23 11:10:00,31.5,12.0,30.11,North,0,5.0,14.0,44,0.00,,,0.00,meteohub,2013-02-23 10:10:00,
2013-02-23 11:15:00,31.5,12.0,30.11,ENE,68,8.0,15.0,44,0.00,,,0.00,meteohub,2013-02-23 10:15:00,
2013-02-23 11:20:00,31.8,12.4,30.11,ESE,112,6.0,15.0,44,0.00,,,0.00,meteohub,2013-02-23 10:20:00,
2013-02-23 11:25:00,31.6,11.7,30.11,ENE,68,6.0,11.0,43,0.00,,,0.00,meteohub,2013-02-23 10:25:00,
2013-02-23 11:30:00,31.8,11.8,30.11,NW,315,9.0,11.0,43,0.00,,,0.00,meteohub,2013-02-23 10:30:00,
2013-02-23 11:35:00,32.2,12.2,30.11,NE,45,10.0,11.0,43,0.00,,,0.00,meteohub,2013-02-23 10:35:00,
2013-02-23 11:40:00,32.2,12.2,30.11,NW,315,7.0,16.0,43,0.00,,,0.00,meteohub,2013-02-23 10:40:00,
2013-02-23 11:45:00,32.5,12.6,30.11,NNW,338,4.0,16.0,43,0.00,,,0.00,meteohub,2013-02-23 10:45:00,
2013-02-23 11:51:00,32.5,12.6,30.11,North,0,13.0,16.0,43,0.00,,,0.00,meteohub,2013-02-23 10:51:00,
2013-02-23 11:58:00,32.4,12.4,30.11,NNE,22,10.0,13.0,43,0.00,,,0.00,meteohub,2013-02-23 10:58:00,
2013-02-23 12:03:00,32.4,12.9,30.11,East,90,7.0,13.0,44,0.00,,,0.00,meteohub,2013-02-23 11:03:00,
2013-02-23 12:08:00,32.5,12.6,30.11,West,270,11.0,14.0,43,0.00,,,0.00,meteohub,2013-02-23 11:08:00,
2013-02-23 12:13:00,32.9,12.9,30.11,NE,45,11.0,17.0,43,0.00,,,0.00,meteohub,2013-02-23 11:13:00,
2013-02-23 12:18:00,32.9,12.9,30.11,WNW,292,9.0,17.0,43,0.00,,,0.00,meteohub,2013-02-23 11:18:00,
2013-02-23 12:23:00,33.1,13.1,-100.00,ENE,68,11.0,17.0,43,0.00,,,0.00,meteohub,2013-02-23 11:23:00,
2013-02-23 12:29:00,33.4,12.9,30.11,East,90,7.0,11.0,42,0.00,,,0.00,meteohub,2013-02-23 11:29:00,
2013-02-23 12:34:00,33.3,13.3,30.08,NE,45,6.0,11.0,43,0.00,,,0.00,meteohub,2013-02-23 11:34:00,
2013-02-23 12:40:00,33.1,13.1,30.08,ENE,68,11.0,11.0,43,0.00,,,0.00,meteohub,2013-02-23 11:40:00,
2013-02-23 12:49:00,33.1,13.1,-100.00,SW,225,12.0,17.0,43,0.00,,,0.00,meteohub,2013-02-23 11:49:00,
2013-02-23 12:54:00,33.3,13.3,30.08,NE,45,7.0,17.0,43,0.00,,,0.00,meteohub,2013-02-23 11:54:00,
2013-02-23 12:59:00,33.3,13.3,30.08,North,0,10.0,15.0,43,0.00,,,0.00,meteohub,2013-02-23 11:59:00,
2013-02-23 13:04:00,33.3,13.3,30.08,NW,315,8.0,16.0,43,0.00,,,0.00,meteohub,2013-02-23 12:04:00,
2013-02-23 13:09:00,33.3,13.3,30.08,ENE,68,12.0,17.0,43,0.00,,,0.00,meteohub,2013-02-23 12:09:00,
2013-02-23 13:14:00,33.3,13.3,30.08,NNW,338,10.0,17.0,43,0.00,,,0.00,meteohub,2013-02-23 12:14:00,
2013-02-23 13:20:00,33.3,13.3,30.08,ENE,68,6.0,14.0,43,0.00,,,0.00,meteohub,2013-02-23 12:20:00,
2013-02-23 13:25:00,33.4,14.0,30.08,SE,135,4.0,14.0,44,0.00,,,0.00,meteohub,2013-02-23 12:25:00,
2013-02-23 13:30:00,33.4,14.0,-100.00,NE,45,8.0,14.0,44,0.00,,,0.00,meteohub,2013-02-23 12:30:00,
2013-02-23 13:35:00,33.3,13.3,30.08,East,90,13.0,13.0,43,0.00,,,0.00,meteohub,2013-02-23 12:35:00,
2013-02-23 13:40:00,33.3,13.3,30.08,SW,225,12.0,17.0,43,0.00,,,0.00,meteohub,2013-02-23 12:40:00,
2013-02-23 13:45:00,33.4,14.0,30.08,WSW,248,9.0,17.0,44,0.00,,,0.00,meteohub,2013-02-23 12:45:00,
2013-02-23 13:50:00,33.4,14.0,30.08,NW,315,9.0,17.0,44,0.00,,,0.00,meteohub,2013-02-23 12:50:00,
2013-02-23 13:55:00,33.6,14.2,30.08,NW,315,9.0,12.0,44,0.00,,,0.00,meteohub,2013-02-23 12:55:00,
2013-02-23 14:03:00,33.6,14.2,30.08,NE,45,9.0,13.0,44,0.00,,,0.00,meteohub,2013-02-23 13:03:00,
2013-02-23 14:09:00,33.8,14.2,30.08,NE,45,10.0,13.0,44,0.00,,,0.00,meteohub,2013-02-23 13:09:00,
2013-02-23 14:14:00,33.8,14.2,30.08,East,90,6.0,13.0,44,0.00,,,0.00,meteohub,2013-02-23 13:14:00,
2013-02-23 14:22:00,33.8,14.2,-100.00,NE,45,13.0,13.0,44,0.00,,,0.00,meteohub,2013-02-23 13:22:00,
2013-02-23 14:27:00,33.8,14.2,30.08,North,0,8.0,13.0,44,0.00,,,0.00,meteohub,2013-02-23 13:27:00,
2013-02-23 14:34:00,34.0,14.4,-100.00,North,0,9.0,13.0,44,0.00,,,0.00,meteohub,2013-02-23 13:34:00,
2013-02-23 14:39:00,34.0,14.4,30.08,NNW,338,8.0,13.0,44,0.00,,,0.00,meteohub,2013-02-23 13:39:00,
2013-02-23 14:45:00,34.0,13.8,30.08,NNW,338,6.0,13.0,43,0.00,,,0.00,meteohub,2013-02-23 13:45:00,
2013-02-23 14:50:00,33.8,13.8,30.08,ENE,68,11.0,13.0,43,0.00,,,0.00,meteohub,2013-02-23 13:50:00,
2013-02-23 14:55:00,33.8,13.8,30.08,NW,315,11.0,14.0,43,0.00,,,0.00,meteohub,2013-02-23 13:55:00,
2013-02-23 15:00:00,33.8,13.8,30.08,North,0,11.0,14.0,43,0.00,,,0.00,meteohub,2013-02-23 14:00:00,
2013-02-23 15:05:00,33.8,14.2,-100.00,NE,45,8.0,13.0,44,0.00,,,0.00,meteohub,2013-02-23 14:05:00,
2013-02-23 15:10:00,33.8,13.8,-100.00,SSW,202,8.0,11.0,43,0.00,,,0.00,meteohub,2013-02-23 14:10:00,
2013-02-23 15:15:00,33.6,13.6,30.08,NW,315,11.0,11.0,43,0.00,,,0.00,meteohub,2013-02-23 14:15:00,
2013-02-23 15:21:00,33.6,13.6,30.08,ESE,112,11.0,11.0,43,0.00,,,0.00,meteohub,2013-02-23 14:21:00,
2013-02-23 15:26:00,33.6,13.6,30.08,SSW,202,17.0,17.0,43,0.00,,,0.00,meteohub,2013-02-23 14:26:00,
2013-02-23 15:31:00,33.6,13.6,30.08,NE,45,13.0,17.0,43,0.00,,,0.00,meteohub,2013-02-23 14:31:00,
2013-02-23 15:36:00,33.6,13.6,30.08,SSE,158,10.0,17.0,43,0.00,,,0.00,meteohub,2013-02-23 14:36:00,
2013-02-23 15:41:00,33.8,14.2,30.08,NNW,338,13.0,17.0,44,0.00,,,0.00,meteohub,2013-02-23 14:41:00,
2013-02-23 15:46:00,33.6,13.6,30.08,NNW,338,10.0,14.0,43,0.00,,,0.00,meteohub,2013-02-23 14:46:00,
2013-02-23 15:53:00,33.6,14.2,30.08,NE,45,6.0,13.0,44,0.00,,,0.00,meteohub,2013-02-23 14:53:00,
2013-02-23 16:07:00,33.6,13.6,30.08,ENE,68,6.0,15.0,43,0.00,,,0.00,meteohub,2013-02-23 15:07:00,
2013-02-23 16:13:00,33.6,13.6,30.08,NW,315,5.0,15.0,43,0.00,,,0.00,meteohub,2013-02-23 15:13:00,
2013-02-23 16:19:00,33.6,13.6,30.08,SSW,202,7.0,9.0,43,0.00,,,0.00,meteohub,2013-02-23 15:19:00,
2013-02-23 16:24:00,33.6,13.6,30.08,North,0,8.0,9.0,43,0.00,,,0.00,meteohub,2013-02-23 15:24:00,
2013-02-23 16:35:00,33.4,13.5,30.08,NW,315,11.0,11.0,43,0.00,,,0.00,meteohub,2013-02-23 15:35:00,
2013-02-23 16:40:00,33.6,14.2,30.08,NNE,22,13.0,13.0,44,0.00,,,0.00,meteohub,2013-02-23 15:40:00,
2013-02-23 16:46:00,33.6,13.6,30.08,NE,45,10.0,13.0,43,0.00,,,0.00,meteohub,2013-02-23 15:46:00,
2013-02-23 16:51:00,33.6,13.6,30.08,NNE,22,5.0,13.0,43,0.00,,,0.00,meteohub,2013-02-23 15:51:00,
2013-02-23 16:56:00,33.4,13.5,30.08,NE,45,8.0,13.0,43,0.00,,,0.00,meteohub,2013-02-23 15:56:00,
2013-02-23 17:01:00,33.6,14.2,30.08,NNE,22,11.0,12.0,44,0.00,,,0.00,meteohub,2013-02-23 16:01:00,
2013-02-23 17:06:00,33.4,14.0,30.08,WSW,248,10.0,12.0,44,0.00,,,0.00,meteohub,2013-02-23 16:06:00,
2013-02-23 17:12:00,33.4,14.4,30.08,NW,315,9.0,13.0,45,0.00,,,0.00,meteohub,2013-02-23 16:12:00,
2013-02-23 17:17:00,33.4,14.4,-100.00,NE,45,11.0,14.0,45,0.00,,,0.00,meteohub,2013-02-23 16:17:00,
2013-02-23 17:22:00,33.4,14.9,30.08,NNW,338,9.0,14.0,46,0.00,,,0.00,meteohub,2013-02-23 16:22:00,
2013-02-23 17:27:00,33.4,14.9,30.08,NE,45,10.0,14.0,46,0.00,,,0.00,meteohub,2013-02-23 16:27:00,
2013-02-23 17:32:00,33.4,15.4,-100.00,North,0,9.0,13.0,47,0.00,,,0.00,meteohub,2013-02-23 16:32:00,
2013-02-23 17:42:00,33.4,15.4,30.08,North,0,6.0,11.0,47,0.00,,,0.00,meteohub,2013-02-23 16:42:00,
2013-02-23 17:47:00,33.3,15.3,30.08,NE,45,6.0,8.0,47,0.00,,,0.00,meteohub,2013-02-23 16:47:00,
2013-02-23 17:54:00,33.3,14.7,-100.00,North,0,15.0,15.0,46,0.00,,,0.00,meteohub,2013-02-23 16:54:00,
2013-02-23 18:00:00,33.3,14.4,-100.00,WSW,248,9.0,16.0,45,0.00,,,0.00,meteohub,2013-02-23 17:00:00,
2013-02-23 18:09:00,33.3,15.3,30.08,NW,315,4.0,16.0,47,0.00,,,0.00,meteohub,2013-02-23 17:09:00,
2013-02-23 18:17:00,33.3,15.8,-100.00,ENE,68,14.0,15.0,48,0.00,,,0.00,meteohub,2013-02-23 17:17:00,
2013-02-23 18:22:00,33.3,15.8,30.08,NW,315,6.0,15.0,48,0.00,,,0.00,meteohub,2013-02-23 17:22:00,
2013-02-23 18:28:00,33.3,15.3,30.08,NW,315,11.0,15.0,47,0.00,,,0.00,meteohub,2013-02-23 17:28:00,
2013-02-23 18:33:00,33.3,14.7,-100.00,NW,315,7.0,14.0,46,0.00,,,0.00,meteohub,2013-02-23 17:33:00,
2013-02-23 18:38:00,33.3,15.3,30.08,West,270,8.0,13.0,47,0.00,,,0.00,meteohub,2013-02-23 17:38:00,
2013-02-23 18:44:00,33.3,15.8,30.08,NE,45,8.0,13.0,48,0.00,,,0.00,meteohub,2013-02-23 17:44:00,
2013-02-23 18:51:00,33.3,14.7,30.08,ENE,68,10.0,12.0,46,0.00,,,0.00,meteohub,2013-02-23 17:51:00,
2013-02-23 18:56:00,33.3,15.8,-100.00,NNW,338,6.0,10.0,48,0.00,,,0.00,meteohub,2013-02-23 17:56:00,
2013-02-23 19:03:00,33.3,15.3,30.08,NE,45,6.0,11.0,47,0.00,,,0.00,meteohub,2013-02-23 18:03:00,
2013-02-23 19:08:00,33.3,15.3,30.08,NNE,22,7.0,17.0,47,0.00,,,0.00,meteohub,2013-02-23 18:08:00,
2013-02-23 19:14:00,33.3,15.8,30.08,ENE,68,4.0,17.0,48,0.00,,,0.00,meteohub,2013-02-23 18:14:00,
2013-02-23 19:19:00,33.1,15.1,30.08,ENE,68,10.0,10.0,47,0.00,,,0.00,meteohub,2013-02-23 18:19:00,
2013-02-23 19:24:00,33.3,15.8,30.08,ENE,68,6.0,10.0,48,0.00,,,0.00,meteohub,2013-02-23 18:24:00,
2013-02-23 19:34:00,33.3,16.2,30.08,NNW,338,4.0,10.0,49,0.00,,,0.00,meteohub,2013-02-23 18:34:00,
2013-02-23 19:39:00,33.3,15.8,30.08,NE,45,8.0,13.0,48,0.00,,,0.00,meteohub,2013-02-23 18:39:00,
2013-02-23 19:44:00,33.3,15.8,30.08,NNE,22,10.0,13.0,48,0.00,,,0.00,meteohub,2013-02-23 18:44:00,
2013-02-23 19:49:00,33.3,16.2,-100.00,NE,45,6.0,8.0,49,0.00,,,0.00,meteohub,2013-02-23 18:49:00,
2013-02-23 19:54:00,33.3,15.8,30.08,NE,45,6.0,11.0,48,0.00,,,0.00,meteohub,2013-02-23 18:54:00,
2013-02-23 20:02:00,33.3,16.7,30.08,NNE,22,11.0,11.0,50,0.00,,,0.00,meteohub,2013-02-23 19:02:00,
2013-02-23 20:08:00,33.3,16.2,30.11,NNW,338,10.0,11.0,49,0.00,,,0.00,meteohub,2013-02-23 19:08:00,
2013-02-23 20:13:00,33.3,16.2,30.11,NNE,22,7.0,11.0,49,0.00,,,0.00,meteohub,2013-02-23 19:13:00,
2013-02-23 20:19:00,33.3,16.7,30.08,ENE,68,6.0,11.0,50,0.00,,,0.00,meteohub,2013-02-23 19:19:00,
2013-02-23 20:24:00,33.3,16.7,30.08,NNW,338,6.0,10.0,50,0.00,,,0.00,meteohub,2013-02-23 19:24:00,
2013-02-23 20:29:00,33.3,16.7,30.08,ENE,68,11.0,11.0,50,0.00,,,0.00,meteohub,2013-02-23 19:29:00,
2013-02-23 20:34:00,33.3,16.7,30.08,NW,315,8.0,9.0,50,0.00,,,0.00,meteohub,2013-02-23 19:34:00,
2013-02-23 20:39:00,33.1,16.0,30.08,South,180,6.0,11.0,49,0.00,,,0.00,meteohub,2013-02-23 19:39:00,
2013-02-23 20:48:00,33.3,15.8,30.08,East,90,5.0,13.0,48,0.00,,,0.00,meteohub,2013-02-23 19:48:00,
2013-02-23 20:53:00,33.3,15.8,30.08,ESE,112,6.0,13.0,48,0.00,,,0.00,meteohub,2013-02-23 19:53:00,
2013-02-23 20:59:00,33.3,16.2,30.08,NE,45,6.0,17.0,49,0.00,,,0.00,meteohub,2013-02-23 19:59:00,
2013-02-23 21:04:00,33.3,17.1,30.08,NE,45,6.0,17.0,51,0.00,,,0.00,meteohub,2013-02-23 20:04:00,
2013-02-23 21:18:00,33.3,16.7,30.11,NNW,338,8.0,9.0,50,0.00,,,0.00,meteohub,2013-02-23 20:18:00,
2013-02-23 21:23:00,33.3,16.7,30.11,NNE,22,6.0,8.0,50,0.00,,,0.00,meteohub,2013-02-23 20:23:00,
2013-02-23 21:28:00,33.3,17.1,30.11,NE,45,6.0,8.0,51,0.00,,,0.00,meteohub,2013-02-23 20:28:00,
2013-02-23 21:33:00,33.3,17.6,30.08,NW,315,7.0,8.0,52,0.00,,,0.00,meteohub,2013-02-23 20:33:00,
2013-02-23 21:40:00,33.3,17.6,30.08,NE,45,6.0,10.0,52,0.00,,,0.00,meteohub,2013-02-23 20:40:00,
2013-02-23 21:49:00,33.3,17.6,-100.00,NNW,338,10.0,11.0,52,0.00,,,0.00,meteohub,2013-02-23 20:49:00,
2013-02-23 21:55:00,33.3,18.0,30.11,NW,315,8.0,11.0,53,0.00,,,0.00,meteohub,2013-02-23 20:55:00,
2013-02-23 22:00:00,33.3,18.0,30.11,NNE,22,6.0,11.0,53,0.00,,,0.00,meteohub,2013-02-23 21:00:00,
2013-02-23 22:05:00,33.3,18.0,30.11,South,180,7.0,11.0,53,0.00,,,0.00,meteohub,2013-02-23 21:05:00,
2013-02-23 22:10:00,33.3,17.6,30.11,NNW,338,8.0,12.0,52,0.00,,,0.00,meteohub,2013-02-23 21:10:00,
2013-02-23 22:15:00,33.4,18.1,-100.00,WNW,292,10.0,12.0,53,0.00,,,0.00,meteohub,2013-02-23 21:15:00,
2013-02-23 22:20:00,33.3,17.6,30.11,SW,225,9.0,12.0,52,0.00,,,0.00,meteohub,2013-02-23 21:20:00,
2013-02-23 22:34:00,33.3,18.0,30.11,North,0,8.0,10.0,53,0.00,,,0.00,meteohub,2013-02-23 21:34:00,
2013-02-23 22:39:00,33.3,18.0,30.11,NE,45,8.0,8.0,53,0.00,,,0.00,meteohub,2013-02-23 21:39:00,
2013-02-23 22:44:00,33.1,17.8,30.11,NE,45,5.0,8.0,53,0.00,,,0.00,meteohub,2013-02-23 21:44:00,
2013-02-23 22:53:00,33.1,17.8,30.11,NE,45,9.0,9.0,53,0.00,,,0.00,meteohub,2013-02-23 21:53:00,
2013-02-23 23:09:00,33.3,18.0,-100.00,SSE,158,8.0,10.0,53,0.00,,,0.00,meteohub,2013-02-23 22:09:00,
2013-02-23 23:14:00,33.1,17.8,30.11,NW,315,13.0,13.0,53,0.00,,,0.00,meteohub,2013-02-23 22:14:00,
2013-02-23 23:20:00,33.1,17.8,30.11,NE,45,8.0,8.0,53,0.00,,,0.00,meteohub,2013-02-23 22:20:00,
2013-02-23 23:27:00,33.1,17.8,30.11,NNE,22,6.0,13.0,53,0.00,,,0.00,meteohub,2013-02-23 22:27:00,
2013-02-23 23:32:00,33.1,17.8,30.11,North,0,7.0,9.0,53,0.00,,,0.00,meteohub,2013-02-23 22:32:00,
2013-02-23 23:37:00,33.1,17.8,-100.00,NE,45,13.0,13.0,53,0.00,,,0.00,meteohub,2013-02-23 22:37:00,
2013-02-23 23:42:00,33.1,17.8,-100.00,SW,225,6.0,13.0,53,0.00,,,0.00,meteohub,2013-02-23 22:42:00,
2013-02-23 23:47:00,33.1,17.8,30.11,NNW,338,6.0,13.0,53,0.00,,,0.00,meteohub,2013-02-23 22:47:00,
2013-02-23 23:52:00,33.1,17.8,30.11,NE,45,6.0,13.0,53,0.00,,,0.00,meteohub,2013-02-23 22:52:00,
2013-02-23 23:57:00,32.9,17.8,30.11,NW,315,6.0,8.0,53,0.00,,,0.00,meteohub,2013-02-23 22:57:00,